Arcola, Indiana
Current Conditions -  °F | °C
As of 4:54 PM on Saturday 25 Oct 2014 (Local Time) from KFWA Reporting Station
Few Clouds Few Clouds  
Wind Chill: 21°   Ceiling: Unl
Heat Index: 21°   Visibility: 10mi
Dew Point:   Wind: 14mph
Humidity: 44%   Direction: 270°W
Pressure: 29.88"   Gusts: NA
Location:  41.1°N, 85.29°W
Report Text: KFWA 252054Z 27012KT 10SM FEW250 21/08 A2988 RMK AO2 SLP116 T02110083 56005
Loading
Personal Weather Stations






























Interactive Weather Map
Tropical Storm Tracking
New forecast layout! Learn more

10-Day Weather Forecast

Advertisements
Track Severe Weather on mobile